createdAt,value
2019-02-06T14:21:38.455Z,29.00
2019-02-06T14:24:23.690Z,28.80
2019-02-06T14:28:51.081Z,28.90
2019-02-06T14:35:08.003Z,29.00
2019-02-06T14:38:54.497Z,29.00
2019-02-06T14:42:32.055Z,29.00
2019-02-06T14:47:44.089Z,29.40
2019-02-06T14:51:03.066Z,29.10
2019-02-06T14:54:04.352Z,29.00
2019-02-06T14:57:27.585Z,29.00
2019-02-06T15:00:20.581Z,29.20
2019-02-06T15:03:28.765Z,29.00
2019-02-06T15:06:23.361Z,28.90
2019-02-06T15:09:40.356Z,29.00
2019-02-06T15:13:05.588Z,29.00
2019-02-06T15:16:15.891Z,28.90
2019-02-06T15:19:30.614Z,28.90
2019-02-06T15:22:55.975Z,28.90
2019-02-06T15:25:55.707Z,29.00
2019-02-06T15:29:00.388Z,29.10
2019-02-06T15:31:58.941Z,29.00
2019-02-06T15:35:40.608Z,28.90
2019-02-06T15:39:15.472Z,28.70
2019-02-06T15:42:33.373Z,28.60
2019-02-06T15:45:58.004Z,28.80
2019-02-06T15:49:14.295Z,28.90
2019-02-06T15:52:28.862Z,28.70
2019-02-06T15:55:45.783Z,28.70
2019-02-06T15:58:39.846Z,28.70
2019-02-06T16:01:39.503Z,28.70
2019-02-06T16:05:00.309Z,28.60
2019-02-06T16:08:20.117Z,28.70
2019-02-06T16:11:41.515Z,28.70
2019-02-06T16:14:45.236Z,28.60
2019-02-06T16:18:08.812Z,28.60
2019-02-06T16:21:40.455Z,28.60
2019-02-06T16:24:58.736Z,28.60
2019-02-06T16:28:23.679Z,28.50
2019-02-06T16:31:23.945Z,28.50
2019-02-06T16:34:33.978Z,28.50
2019-02-06T16:37:56.363Z,28.50
2019-02-06T16:41:24.756Z,28.50
2019-02-06T16:44:21.568Z,28.50
2019-02-06T16:47:20.492Z,28.50
2019-02-06T16:50:27.901Z,28.40
2019-02-06T16:53:32.430Z,28.50
2019-02-06T16:56:50.634Z,28.50
2019-02-06T17:00:05.951Z,28.40
2019-02-06T17:03:17.973Z,28.40
2019-02-06T17:06:08.708Z,28.50
2019-02-06T17:09:19.442Z,28.50
2019-02-06T17:12:26.652Z,28.40
2019-02-06T17:15:28.969Z,28.40
2019-02-06T17:18:47.135Z,28.40
2019-02-06T17:22:14.699Z,28.50
2019-02-06T17:25:31.016Z,28.40
2019-02-06T17:28:38.735Z,28.40
2019-02-06T17:31:33.534Z,28.50
2019-02-06T17:34:38.751Z,28.40
2019-02-06T17:38:16.554Z,28.40
2019-02-06T17:41:22.573Z,28.50
2019-02-06T17:44:34.122Z,28.50
2019-02-06T17:47:35.722Z,28.40
2019-02-06T17:50:29.458Z,28.50
2019-02-06T17:53:57.688Z,28.60
2019-02-06T17:56:34.890Z,28.60
2019-02-06T17:59:13.268Z,28.50
2019-02-06T18:01:54.301Z,28.50
2019-02-06T18:04:38.024Z,28.50
2019-02-06T18:07:16.223Z,28.60
2019-02-06T18:09:53.914Z,28.60
2019-02-06T18:12:31.116Z,28.50
2019-02-06T18:15:09.854Z,28.40
2019-02-06T18:17:48.472Z,28.50
2019-02-06T18:20:26.050Z,28.40
2019-02-06T18:23:03.784Z,28.50
2019-02-06T18:25:45.583Z,28.50
2019-02-06T18:28:22.804Z,28.40
2019-02-06T18:31:01.899Z,28.40
2019-02-06T18:33:39.801Z,28.40
2019-02-06T18:36:20.346Z,28.50
2019-02-06T18:38:58.425Z,28.40
2019-02-06T18:41:36.471Z,28.30
2019-02-06T18:44:13.791Z,28.40
2019-02-06T18:46:53.959Z,28.40
2019-02-06T18:49:32.517Z,28.30
2019-02-06T18:52:20.175Z,28.20
2019-02-06T18:54:50.631Z,28.40
2019-02-06T18:57:31.409Z,28.50
2019-02-06T19:00:10.518Z,28.50
2019-02-06T19:02:51.659Z,28.40
2019-02-06T19:05:33.656Z,28.30
2019-02-06T19:08:11.096Z,28.40
2019-02-06T19:10:49.601Z,28.40
2019-02-06T19:13:28.103Z,28.40
2019-02-06T19:16:05.531Z,28.30
2019-02-06T19:18:42.758Z,28.10
2019-02-06T19:21:20.050Z,28.20
2019-02-06T19:24:00.450Z,28.30
2019-02-06T19:26:39.135Z,28.30
2019-02-06T19:29:16.518Z,28.10
2019-02-06T19:31:53.985Z,27.90
2019-02-06T19:34:31.387Z,28.10
2019-02-06T19:37:08.655Z,28.30
2019-02-06T19:39:45.844Z,28.40
2019-02-06T19:42:23.247Z,28.20
2019-02-06T19:45:01.712Z,28.10
2019-02-06T19:47:41.805Z,28.30
2019-02-06T19:50:22.671Z,28.30
2019-02-06T19:52:59.637Z,28.20
2019-02-06T19:55:39.585Z,28.00
2019-02-06T19:58:17.840Z,28.00
2019-02-06T20:00:54.948Z,28.20
2019-02-06T20:03:33.036Z,28.20
2019-02-06T20:06:10.392Z,28.10
2019-02-06T20:08:47.660Z,28.10
2019-02-06T20:11:25.036Z,28.20
2019-02-06T20:14:02.250Z,28.10
2019-02-06T20:16:39.182Z,28.10
2019-02-06T20:19:17.172Z,28.10
2019-02-06T20:21:54.368Z,28.20
2019-02-06T20:24:31.761Z,28.20
2019-02-06T20:27:09.292Z,28.10
2019-02-06T20:29:47.210Z,28.10
2019-02-06T20:32:24.557Z,28.10
2019-02-06T20:35:01.807Z,28.00
2019-02-06T20:37:40.836Z,28.10
2019-02-06T20:40:23.367Z,28.00
2019-02-06T20:43:04.060Z,28.10
2019-02-06T20:45:41.587Z,28.00
2019-02-06T20:48:18.833Z,28.10
2019-02-06T20:50:56.039Z,28.00
2019-02-06T20:53:32.909Z,28.00
2019-02-06T20:56:12.842Z,28.00
2019-02-06T20:58:49.793Z,28.10
2019-02-06T21:01:27.084Z,28.10
2019-02-06T21:04:05.332Z,28.00
2019-02-06T21:06:42.553Z,28.00
2019-02-06T21:09:22.499Z,27.90
2019-02-06T21:11:59.630Z,28.00
2019-02-06T21:14:37.598Z,28.00
2019-02-06T21:17:14.785Z,28.00
2019-02-06T21:19:51.999Z,27.90
2019-02-06T21:22:30.144Z,27.90
2019-02-06T21:25:09.601Z,28.00
2019-02-06T21:27:46.985Z,28.10
2019-02-06T21:30:26.463Z,28.10
2019-02-06T21:33:03.838Z,27.90
2019-02-06T21:35:41.332Z,28.00
2019-02-06T21:38:18.323Z,28.20
2019-02-06T21:40:55.621Z,28.10
2019-02-06T21:43:43.658Z,28.10
2019-02-06T21:46:11.423Z,27.90
2019-02-06T21:48:48.395Z,27.90
2019-02-06T21:51:25.840Z,28.00
2019-02-06T21:54:03.078Z,28.00
2019-02-06T21:56:40.393Z,28.00
2019-02-06T21:59:17.542Z,27.90
2019-02-06T22:01:54.798Z,27.90
2019-02-06T22:04:31.844Z,28.00
2019-02-06T22:07:08.913Z,28.10
2019-02-06T22:09:46.075Z,28.00
2019-02-06T22:12:27.719Z,27.90
2019-02-06T22:15:06.228Z,27.90
2019-02-06T22:17:45.049Z,28.00
2019-02-06T22:20:22.296Z,28.00
2019-02-06T22:22:59.308Z,27.90
2019-02-06T22:25:39.583Z,27.80
2019-02-06T22:28:16.784Z,27.90
2019-02-06T22:30:54.206Z,28.00
2019-02-06T22:33:31.082Z,28.00
2019-02-06T22:36:08.265Z,27.90
2019-02-06T22:38:46.849Z,27.80
2019-02-06T22:41:24.995Z,27.90
2019-02-06T22:44:06.694Z,27.90
2019-02-06T22:46:40.921Z,28.00
2019-02-06T22:49:19.602Z,27.90
2019-02-06T22:51:56.861Z,28.00
2019-02-06T22:54:34.894Z,27.90
2019-02-06T22:57:12.925Z,27.90
2019-02-06T22:59:56.448Z,27.90
2019-02-06T23:02:37.731Z,27.90
2019-02-06T23:05:15.114Z,27.90
2019-02-06T23:07:52.375Z,27.90
2019-02-06T23:10:29.969Z,27.80
2019-02-06T23:13:07.148Z,27.90
2019-02-06T23:15:45.269Z,27.90
2019-02-06T23:18:25.590Z,27.90
2019-02-06T23:21:02.966Z,27.90
2019-02-06T23:23:41.978Z,27.90
2019-02-06T23:26:22.075Z,27.80
2019-02-06T23:28:59.148Z,27.80
2019-02-06T23:31:36.227Z,28.00
2019-02-06T23:34:16.083Z,27.90
2019-02-06T23:36:53.236Z,27.90
2019-02-06T23:39:31.467Z,27.80
2019-02-06T23:42:08.668Z,27.80
2019-02-06T23:44:49.989Z,27.90
2019-02-06T23:47:30.105Z,27.90
2019-02-06T23:50:07.415Z,27.90
2019-02-06T23:52:45.429Z,27.80
2019-02-06T23:55:23.849Z,27.90
2019-02-06T23:58:01.691Z,28.00
